createdAt,value
2018-12-04T00:00:41.883Z,7.99
2018-12-04T00:03:09.206Z,8.09
2018-12-04T00:05:36.656Z,8.02
2018-12-04T00:08:05.310Z,8.10
2018-12-04T00:10:33.657Z,7.99
2018-12-04T00:13:01.996Z,7.96
2018-12-04T00:15:29.304Z,8.01
2018-12-04T00:17:56.795Z,8.00
2018-12-04T00:20:24.255Z,7.98
2018-12-04T00:22:51.553Z,7.88
2018-12-04T00:25:18.847Z,8.00
2018-12-04T00:27:46.621Z,8.02
2018-12-04T00:30:13.907Z,7.91
2018-12-04T00:32:41.204Z,7.96
2018-12-04T00:35:08.539Z,7.99
2018-12-04T00:37:36.309Z,8.00
2018-12-04T00:40:04.677Z,7.89
2018-12-04T00:42:32.308Z,7.84
2018-12-04T00:44:59.613Z,7.76
2018-12-04T00:47:27.316Z,7.68
2018-12-04T00:49:55.378Z,7.67
2018-12-04T00:52:22.699Z,7.71
2018-12-04T00:54:49.984Z,7.63
2018-12-04T00:57:17.579Z,7.69
2018-12-04T00:59:44.850Z,7.74
2018-12-04T01:02:12.156Z,7.52
2018-12-04T01:04:56.432Z,7.65
2018-12-04T01:07:23.787Z,7.73
2018-12-04T01:09:51.196Z,7.73
2018-12-04T01:12:18.975Z,7.68
2018-12-04T01:14:46.403Z,7.74
2018-12-04T01:17:13.711Z,7.78
2018-12-04T01:19:41.046Z,7.78
2018-12-04T01:22:08.378Z,7.75
2018-12-04T01:24:35.668Z,7.78
2018-12-04T01:27:03.075Z,7.79
2018-12-04T01:29:30.357Z,7.73
2018-12-04T01:31:57.639Z,7.74
2018-12-04T01:34:24.974Z,7.75
2018-12-04T01:36:52.299Z,7.70
2018-12-04T01:39:19.604Z,7.82
2018-12-04T01:41:46.924Z,7.76
2018-12-04T01:44:14.215Z,7.77
2018-12-04T01:46:41.550Z,7.78
2018-12-04T01:49:08.875Z,7.79
2018-12-04T01:51:36.167Z,7.53
2018-12-04T01:54:03.643Z,7.64
2018-12-04T01:56:30.959Z,7.61
2018-12-04T01:58:58.511Z,7.55
2018-12-04T02:01:25.795Z,7.54
2018-12-04T02:03:53.091Z,7.51
2018-12-04T02:06:20.383Z,7.55
2018-12-04T02:08:47.667Z,7.51
2018-12-04T02:11:14.959Z,7.45
2018-12-04T02:13:42.254Z,7.40
2018-12-04T02:16:09.567Z,7.52
2018-12-04T02:18:36.840Z,7.58
2018-12-04T02:21:05.272Z,7.73
2018-12-04T02:23:32.839Z,7.69
2018-12-04T02:26:00.146Z,7.62
2018-12-04T02:28:33.193Z,7.71
2018-12-04T02:31:00.466Z,7.62
2018-12-04T02:33:27.755Z,7.64
2018-12-04T02:35:55.050Z,7.78
2018-12-04T02:38:22.331Z,7.68
2018-12-04T02:41:04.879Z,7.70
2018-12-04T02:43:33.188Z,7.48
2018-12-04T02:46:00.471Z,7.46
2018-12-04T02:48:27.790Z,7.40
2018-12-04T02:50:55.112Z,7.24
2018-12-04T02:53:23.543Z,7.30
2018-12-04T02:55:50.852Z,7.34
2018-12-04T02:58:18.191Z,7.22
2018-12-04T03:00:45.738Z,7.32
2018-12-04T03:03:14.098Z,7.30
2018-12-04T03:05:42.541Z,7.20
2018-12-04T03:08:09.837Z,7.13
2018-12-04T03:10:37.132Z,7.16
2018-12-04T03:13:04.423Z,7.12
2018-12-04T03:15:31.795Z,7.09
2018-12-04T03:17:59.108Z,7.04
2018-12-04T03:20:26.396Z,7.01
2018-12-04T03:22:53.723Z,7.09
2018-12-04T03:25:21.015Z,7.00
2018-12-04T03:27:48.414Z,6.93
2018-12-04T03:30:17.754Z,6.92
2018-12-04T03:32:46.256Z,6.95
2018-12-04T03:35:13.531Z,6.96
2018-12-04T03:37:40.810Z,6.85
2018-12-04T03:40:08.819Z,6.85
2018-12-04T03:42:36.124Z,6.77
2018-12-04T03:45:04.555Z,6.76
2018-12-04T03:47:31.863Z,6.81
2018-12-04T03:49:59.148Z,6.71
2018-12-04T03:52:26.699Z,6.59
2018-12-04T03:54:53.986Z,6.68
2018-12-04T03:57:21.376Z,6.54
2018-12-04T03:59:48.674Z,6.56
2018-12-04T04:02:15.994Z,6.52
2018-12-04T04:04:43.414Z,6.64
2018-12-04T04:07:10.824Z,6.51
2018-12-04T04:09:38.128Z,6.44
2018-12-04T04:12:07.436Z,6.45
2018-12-04T04:14:34.748Z,6.47
2018-12-04T04:17:02.038Z,6.54
2018-12-04T04:19:29.349Z,6.60
2018-12-04T04:21:56.631Z,6.53
2018-12-04T04:24:24.407Z,6.48
2018-12-04T04:26:51.901Z,6.46
2018-12-04T04:29:19.292Z,6.46
2018-12-04T04:31:46.562Z,6.47
2018-12-04T04:34:13.901Z,6.45
2018-12-04T04:36:41.182Z,6.45
2018-12-04T04:39:08.739Z,6.34
2018-12-04T04:41:36.125Z,6.36
2018-12-04T04:44:03.566Z,6.39
2018-12-04T04:46:30.863Z,6.40
2018-12-04T04:48:58.336Z,6.28
2018-12-04T04:51:25.627Z,6.44
2018-12-04T04:53:52.919Z,6.32
2018-12-04T04:56:20.207Z,6.40
2018-12-04T04:58:47.608Z,6.28
2018-12-04T05:01:14.898Z,6.27
2018-12-04T05:03:42.193Z,6.43
2018-12-04T05:06:09.490Z,6.42
2018-12-04T05:08:36.774Z,6.24
2018-12-04T05:11:04.051Z,6.25
2018-12-04T05:13:31.319Z,6.27
2018-12-04T05:15:58.587Z,6.22
2018-12-04T05:18:25.879Z,6.19
2018-12-04T05:20:53.258Z,6.23
2018-12-04T05:23:20.568Z,6.21
2018-12-04T05:25:47.826Z,6.21
2018-12-04T05:28:15.082Z,6.14
2018-12-04T05:30:42.334Z,6.12
2018-12-04T05:33:09.594Z,6.08
2018-12-04T05:35:36.858Z,6.06
2018-12-04T05:38:04.154Z,6.12
2018-12-04T05:40:31.406Z,6.15
2018-12-04T05:42:58.662Z,6.26
2018-12-04T05:45:25.914Z,6.13
2018-12-04T05:47:53.366Z,6.03
2018-12-04T05:50:20.626Z,6.16
2018-12-04T05:53:51.450Z,6.03
2018-12-04T05:56:19.333Z,6.03
2018-12-04T05:58:46.788Z,6.02
2018-12-04T06:01:14.078Z,6.11
2018-12-04T06:03:41.678Z,6.02
2018-12-04T06:06:10.027Z,5.94
2018-12-04T06:08:37.385Z,5.95
2018-12-04T06:11:04.806Z,5.95
2018-12-04T06:13:32.236Z,6.07
2018-12-04T06:15:59.699Z,5.99
2018-12-04T06:18:26.975Z,5.83
2018-12-04T06:20:54.275Z,5.95
2018-12-04T06:23:21.662Z,6.03
2018-12-04T06:25:48.957Z,5.99
2018-12-04T06:28:16.251Z,6.09
2018-12-04T06:30:43.562Z,6.05
2018-12-04T06:33:10.848Z,6.06
2018-12-04T06:35:38.139Z,5.98
2018-12-04T06:38:05.487Z,5.87
2018-12-04T06:40:32.819Z,5.95
2018-12-04T06:43:00.141Z,5.93
2018-12-04T06:45:27.480Z,5.99
2018-12-04T06:47:54.942Z,5.85
2018-12-04T06:50:22.354Z,5.85
2018-12-04T06:52:49.676Z,5.80
2018-12-04T06:55:16.978Z,5.84
2018-12-04T06:57:54.927Z,5.90
2018-12-04T07:00:22.407Z,5.87
2018-12-04T07:02:49.698Z,5.98
2018-12-04T07:05:17.230Z,5.94
2018-12-04T07:07:44.700Z,5.80
2018-12-04T07:10:11.991Z,5.98
2018-12-04T07:12:39.310Z,5.92
2018-12-04T07:15:06.783Z,5.81
2018-12-04T07:17:35.211Z,5.71
2018-12-04T07:20:04.663Z,5.87
2018-12-04T07:22:31.938Z,5.71
2018-12-04T07:24:59.248Z,5.74
2018-12-04T07:27:26.554Z,5.66
2018-12-04T07:29:53.815Z,5.58
2018-12-04T07:32:21.089Z,5.60
2018-12-04T07:34:48.367Z,5.66
2018-12-04T07:37:15.743Z,5.61
2018-12-04T07:39:43.038Z,5.63
2018-12-04T07:42:10.334Z,5.81
2018-12-04T07:44:37.675Z,5.59
2018-12-04T07:47:04.992Z,5.55
2018-12-04T07:49:32.279Z,5.91
2018-12-04T07:51:59.595Z,5.80
2018-12-04T07:54:26.887Z,5.65
2018-12-04T07:56:54.207Z,5.55
2018-12-04T07:59:21.515Z,5.51
2018-12-04T08:01:48.835Z,5.60
2018-12-04T08:04:16.118Z,5.52
2018-12-04T08:06:43.447Z,5.57
2018-12-04T08:09:10.759Z,5.61
2018-12-04T08:11:40.188Z,5.58
2018-12-04T08:14:08.458Z,5.68
2018-12-04T08:16:35.815Z,5.77
2018-12-04T08:19:03.251Z,5.59
2018-12-04T08:21:30.818Z,5.71
2018-12-04T08:23:58.099Z,5.72
2018-12-04T08:26:25.419Z,5.72
2018-12-04T08:28:52.715Z,5.59
2018-12-04T08:31:20.059Z,5.81
2018-12-04T08:33:47.343Z,5.77
2018-12-04T08:36:14.652Z,5.86
2018-12-04T08:45:37.142Z,5.92
2018-12-04T08:48:04.490Z,5.95
2018-12-04T08:50:31.767Z,6.07
2018-12-04T08:52:59.166Z,6.27
2018-12-04T08:55:26.486Z,6.18
2018-12-04T08:57:53.896Z,6.10
2018-12-04T09:00:21.223Z,6.19
2018-12-04T09:02:48.536Z,6.35
2018-12-04T09:05:15.883Z,6.30
2018-12-04T09:07:43.350Z,6.50
2018-12-04T09:10:10.766Z,6.35
2018-12-04T09:12:38.031Z,6.18
2018-12-04T09:15:06.098Z,6.28
2018-12-04T09:17:33.715Z,6.59
2018-12-04T09:20:01.216Z,6.76
2018-12-04T09:22:28.604Z,6.85
2018-12-04T09:24:55.997Z,6.60
2018-12-04T09:27:23.464Z,6.70
2018-12-04T09:29:51.008Z,6.85
2018-12-04T09:32:18.373Z,6.56
2018-12-04T09:34:45.654Z,6.57
2018-12-04T09:37:13.046Z,6.58
2018-12-04T09:39:40.546Z,6.38
2018-12-04T09:42:08.660Z,6.82
2018-12-04T09:44:36.110Z,6.80
2018-12-04T09:47:03.547Z,6.77
2018-12-04T09:49:30.936Z,6.87
2018-12-04T09:51:58.314Z,6.92
2018-12-04T09:54:25.713Z,7.14
2018-12-04T09:56:53.015Z,6.97
2018-12-04T09:59:20.312Z,6.69
2018-12-04T10:01:47.622Z,6.67
2018-12-04T10:04:14.963Z,6.46
2018-12-04T10:06:42.287Z,6.49
2018-12-04T10:09:09.398Z,6.54
2018-12-04T10:11:36.785Z,6.43
2018-12-04T10:14:04.207Z,6.51
2018-12-04T10:16:31.522Z,6.45
2018-12-04T10:18:59.167Z,6.34
2018-12-04T10:21:26.470Z,6.21
2018-12-04T10:23:53.808Z,6.35
2018-12-04T10:26:21.118Z,6.20
2018-12-04T10:28:48.411Z,6.14
2018-12-04T10:31:15.730Z,5.81
2018-12-04T10:33:43.027Z,5.90
2018-12-04T10:36:10.339Z,5.76
2018-12-04T10:38:37.627Z,5.89
2018-12-04T10:41:04.943Z,5.81
2018-12-04T10:43:32.234Z,5.82
2018-12-04T10:45:59.555Z,6.11
2018-12-04T10:48:27.007Z,6.21
2018-12-04T10:50:54.279Z,6.16
2018-12-04T10:53:21.567Z,6.33
2018-12-04T10:55:48.997Z,6.51
2018-12-04T10:58:16.361Z,6.53
2018-12-04T11:00:49.606Z,6.61
2018-12-04T11:03:18.918Z,6.59
2018-12-04T11:05:46.318Z,6.49
2018-12-04T11:08:13.598Z,6.47
2018-12-04T11:10:40.874Z,6.47
2018-12-04T11:13:08.162Z,6.61
2018-12-04T11:15:35.461Z,6.66
2018-12-04T11:18:02.926Z,6.82
2018-12-04T11:20:30.365Z,6.78
2018-12-04T11:22:57.652Z,6.91
2018-12-04T11:25:24.902Z,7.06
2018-12-04T11:27:52.518Z,6.99
2018-12-04T11:30:19.797Z,7.18
2018-12-04T11:32:47.070Z,7.30
2018-12-04T11:35:14.362Z,7.19
2018-12-04T11:37:41.803Z,7.40
2018-12-04T11:40:09.091Z,7.14
2018-12-04T11:42:36.487Z,7.11
2018-12-04T11:45:04.214Z,7.45
2018-12-04T11:47:31.750Z,7.47
2018-12-04T11:49:59.133Z,7.32
2018-12-04T11:52:26.385Z,7.25
2018-12-04T11:54:53.644Z,7.31
2018-12-04T11:57:21.094Z,7.47
2018-12-04T11:59:48.490Z,7.50
2018-12-04T12:02:16.050Z,7.55
2018-12-04T12:04:43.407Z,7.52
2018-12-04T12:07:12.703Z,7.74
2018-12-04T12:09:39.999Z,7.82
2018-12-04T12:12:07.335Z,7.91
2018-12-04T12:14:34.748Z,7.72
2018-12-04T12:17:02.055Z,7.99
2018-12-04T12:19:29.498Z,8.07
2018-12-04T12:21:56.794Z,8.01
2018-12-04T12:24:24.074Z,7.75
2018-12-04T12:26:51.707Z,8.16
2018-12-04T12:29:19.090Z,7.61
2018-12-04T12:31:46.390Z,7.22
2018-12-04T12:34:13.662Z,6.65
2018-12-04T12:36:40.959Z,6.49
2018-12-04T12:39:08.227Z,6.62
2018-12-04T12:41:38.011Z,6.56
2018-12-04T12:44:05.459Z,6.77
2018-12-04T12:46:32.762Z,7.09
2018-12-04T12:49:00.212Z,7.40
2018-12-04T12:51:27.623Z,8.37
2018-12-04T12:53:54.924Z,8.22
2018-12-04T12:56:22.233Z,8.53
2018-12-04T12:58:49.946Z,7.97
2018-12-04T13:01:18.452Z,7.82
2018-12-04T13:03:47.070Z,7.93
2018-12-04T13:06:14.436Z,8.06
2018-12-04T13:08:42.319Z,7.76
2018-12-04T13:11:09.733Z,7.73
2018-12-04T13:13:37.441Z,7.64
2018-12-04T13:16:05.014Z,7.86
2018-12-04T13:18:32.335Z,7.74
2018-12-04T13:20:59.691Z,7.59
2018-12-04T13:23:27.032Z,7.80
2018-12-04T13:28:47.388Z,7.67
2018-12-04T13:31:14.851Z,7.48
2018-12-04T13:33:42.178Z,7.50
2018-12-04T13:36:09.578Z,7.71
2018-12-04T13:38:36.906Z,7.70
2018-12-04T13:41:04.190Z,7.55
2018-12-04T13:43:31.504Z,7.50
2018-12-04T13:45:58.927Z,7.58
2018-12-04T13:48:27.263Z,7.56
2018-12-04T13:50:54.617Z,7.56
2018-12-04T13:53:21.927Z,7.46
2018-12-04T13:55:49.219Z,7.44
2018-12-04T13:58:16.553Z,7.32
2018-12-04T14:00:43.948Z,7.32
2018-12-04T14:03:11.250Z,7.37
2018-12-04T14:05:38.546Z,7.28
2018-12-04T14:08:05.997Z,7.32
2018-12-04T14:10:33.303Z,7.36
2018-12-04T14:13:00.639Z,7.39
2018-12-04T14:15:28.034Z,7.46
2018-12-04T14:17:56.002Z,7.18
2018-12-04T14:20:24.567Z,7.10
2018-12-04T14:22:51.897Z,7.13
2018-12-04T14:25:19.220Z,7.21
2018-12-04T14:27:49.153Z,7.07
2018-12-04T14:30:15.964Z,7.09
2018-12-04T14:32:43.307Z,7.23
2018-12-04T14:35:10.673Z,7.34
2018-12-04T14:37:39.095Z,7.10
2018-12-04T14:40:07.611Z,6.87
2018-12-04T14:42:35.024Z,6.82
2018-12-04T14:45:02.339Z,6.73
2018-12-04T14:47:29.896Z,6.76
2018-12-04T14:49:57.209Z,6.77
2018-12-04T14:52:24.645Z,6.63
2018-12-04T14:54:52.047Z,6.70
2018-12-04T14:57:20.055Z,6.72
2018-12-04T14:59:47.416Z,6.58
2018-12-04T15:02:14.751Z,6.51
2018-12-04T15:04:42.169Z,6.61
2018-12-04T15:07:09.572Z,6.42
2018-12-04T15:09:36.971Z,6.54
2018-12-04T15:12:04.386Z,6.54
2018-12-04T15:14:31.685Z,6.49
2018-12-04T15:16:59.097Z,6.43
2018-12-04T15:19:26.473Z,6.37
2018-12-04T15:21:53.870Z,6.33
2018-12-04T15:24:21.274Z,6.42
2018-12-04T15:26:48.764Z,6.40
2018-12-04T15:29:16.195Z,6.37
2018-12-04T15:31:43.573Z,6.49
2018-12-04T15:34:10.954Z,6.38
2018-12-04T15:36:38.246Z,6.29
2018-12-04T15:39:07.700Z,6.24
2018-12-04T15:41:37.252Z,6.38
2018-12-04T15:44:04.804Z,6.33
2018-12-04T15:46:32.191Z,6.28
2018-12-04T15:48:59.629Z,6.26
2018-12-04T15:51:27.050Z,6.28
2018-12-04T15:53:54.487Z,6.11
2018-12-04T15:56:21.839Z,6.20
2018-12-04T15:58:49.284Z,6.23
2018-12-04T16:01:16.596Z,6.29
2018-12-04T16:03:43.895Z,6.11
2018-12-04T16:06:11.204Z,6.40
2018-12-04T16:08:38.495Z,6.39
2018-12-04T16:11:05.805Z,6.40
2018-12-04T16:13:33.103Z,6.43
2018-12-04T16:16:01.679Z,6.38
2018-12-04T16:18:28.996Z,6.42
2018-12-04T16:20:56.335Z,6.32
2018-12-04T16:23:23.623Z,6.30
2018-12-04T16:25:50.939Z,6.34
2018-12-04T16:28:18.280Z,6.29
2018-12-04T16:30:45.591Z,6.22
2018-12-04T16:33:13.907Z,6.20
2018-12-04T16:35:41.244Z,5.99
2018-12-04T16:38:08.546Z,5.86
2018-12-04T16:40:35.875Z,5.94
2018-12-04T16:43:03.223Z,5.98
2018-12-04T16:45:30.581Z,5.87
2018-12-04T16:47:57.975Z,5.89
2018-12-04T16:50:25.611Z,5.85
2018-12-04T16:52:52.940Z,5.78
2018-12-04T16:55:20.266Z,5.77
2018-12-04T16:57:47.595Z,5.82
2018-12-04T17:00:16.181Z,5.86
2018-12-04T17:02:44.543Z,5.71
2018-12-04T17:05:12.002Z,5.67
2018-12-04T17:07:39.331Z,6.01
2018-12-04T17:10:07.693Z,6.05
2018-12-04T17:12:36.071Z,6.19
2018-12-04T17:15:04.138Z,5.87
2018-12-04T17:17:31.457Z,5.76
2018-12-04T17:19:58.743Z,5.53
2018-12-04T17:22:26.197Z,5.73
2018-12-04T17:24:53.511Z,5.68
2018-12-04T17:27:20.937Z,5.72
2018-12-04T17:29:48.227Z,5.76
2018-12-04T17:32:15.574Z,5.75
2018-12-04T17:34:42.963Z,5.79
2018-12-04T17:37:10.584Z,5.73
2018-12-04T17:39:37.987Z,5.69
2018-12-04T17:42:05.519Z,5.57
2018-12-04T17:44:40.055Z,5.68
2018-12-04T17:47:02.212Z,5.45
2018-12-04T17:49:29.631Z,5.60
2018-12-04T17:51:56.987Z,5.53
2018-12-04T17:54:24.291Z,5.52
2018-12-04T17:56:51.726Z,5.54
2018-12-04T17:59:19.982Z,5.48
2018-12-04T18:01:47.303Z,5.49
2018-12-04T18:04:14.615Z,5.40
2018-12-04T18:06:43.939Z,5.45
2018-12-04T18:09:11.251Z,5.35
2018-12-04T18:11:40.604Z,5.45
2018-12-04T18:14:07.902Z,5.38
2018-12-04T18:16:35.235Z,5.39
2018-12-04T18:19:04.064Z,5.38
2018-12-04T18:21:31.398Z,5.45
2018-12-04T18:23:58.723Z,5.44
2018-12-04T18:26:26.179Z,5.30
2018-12-04T18:28:53.619Z,5.23
2018-12-04T18:31:20.934Z,5.26
2018-12-04T18:33:48.243Z,5.25
2018-12-04T18:36:15.749Z,4.94
2018-12-04T18:38:43.459Z,5.19
2018-12-04T18:41:10.788Z,5.04
2018-12-04T18:43:38.215Z,4.98
2018-12-04T18:46:05.550Z,4.91
2018-12-04T18:48:32.843Z,4.95
2018-12-04T18:51:00.187Z,5.01
2018-12-04T18:53:27.495Z,5.06
2018-12-04T18:55:54.827Z,5.00
2018-12-04T18:58:22.122Z,4.88
2018-12-04T19:00:49.439Z,4.92
2018-12-04T19:03:17.398Z,4.91
2018-12-04T19:05:44.714Z,5.01
2018-12-04T19:08:12.038Z,4.86
2018-12-04T19:10:39.347Z,4.83
2018-12-04T19:13:06.727Z,4.91
2018-12-04T19:17:03.596Z,4.86
2018-12-04T19:19:32.951Z,4.72
2018-12-04T19:22:01.380Z,4.78
2018-12-04T19:24:29.812Z,4.72
2018-12-04T19:26:57.140Z,4.70
2018-12-04T19:29:24.455Z,4.79
2018-12-04T19:31:51.759Z,4.87
2018-12-04T19:34:19.220Z,4.74
2018-12-04T19:36:46.519Z,4.86
2018-12-04T19:39:13.857Z,4.87
2018-12-04T19:41:41.163Z,4.87
2018-12-04T19:44:08.459Z,4.88
2018-12-04T19:46:36.940Z,4.82
2018-12-04T19:49:04.385Z,4.86
2018-12-04T19:51:31.914Z,4.94
2018-12-04T19:53:59.232Z,4.86
2018-12-04T19:56:26.519Z,4.91
2018-12-04T19:58:53.893Z,4.85
2018-12-04T20:01:21.200Z,4.90
2018-12-04T20:03:48.526Z,4.72
2018-12-04T20:06:16.149Z,4.88
2018-12-04T20:08:56.803Z,4.73
2018-12-04T20:11:25.395Z,4.78
2018-12-04T20:13:56.343Z,4.79
2018-12-04T20:16:24.711Z,4.73
2018-12-04T20:18:52.899Z,4.64
2018-12-04T20:21:21.378Z,4.69
2018-12-04T20:24:06.688Z,4.63
2018-12-04T20:26:34.435Z,4.68
2018-12-04T20:29:01.792Z,4.43
2018-12-04T20:31:29.211Z,4.39
2018-12-04T20:33:56.571Z,4.41
2018-12-04T20:36:23.875Z,4.32
2018-12-04T20:38:51.657Z,4.34
2018-12-04T20:41:18.983Z,4.30
2018-12-04T20:43:46.658Z,4.40
2018-12-04T20:46:14.024Z,4.34
2018-12-04T20:48:41.499Z,4.16
2018-12-04T20:51:08.823Z,4.24
2018-12-04T20:53:36.165Z,4.11
2018-12-04T20:56:03.774Z,4.12
2018-12-04T20:58:48.023Z,4.19
2018-12-04T21:01:15.788Z,4.19
2018-12-04T21:03:43.095Z,4.08
2018-12-04T21:06:10.458Z,4.07
2018-12-04T21:08:37.831Z,4.06
2018-12-04T21:11:05.151Z,4.17
2018-12-04T21:13:32.481Z,4.14
2018-12-04T21:16:00.156Z,4.20
2018-12-04T21:18:27.527Z,4.16
2018-12-04T21:20:54.992Z,4.20
2018-12-04T21:23:22.606Z,4.08
2018-12-04T21:25:50.031Z,4.17
2018-12-04T21:28:23.404Z,4.23
2018-12-04T21:30:56.843Z,4.24
2018-12-04T21:33:29.946Z,4.16
2018-12-04T21:36:03.224Z,4.21
2018-12-04T21:38:36.257Z,4.30
2018-12-04T21:42:10.538Z,4.12
2018-12-04T21:44:43.711Z,4.10
2018-12-04T21:47:17.474Z,4.11
2018-12-04T21:49:44.815Z,4.14
2018-12-04T21:52:12.117Z,4.03
2018-12-04T21:54:39.597Z,4.07
2018-12-04T21:57:06.904Z,4.05
2018-12-04T21:59:34.202Z,4.03
2018-12-04T22:02:01.660Z,3.99
2018-12-04T22:04:28.959Z,4.01
2018-12-04T22:06:56.303Z,4.06
2018-12-04T22:09:23.829Z,3.97
2018-12-04T22:11:51.139Z,4.05
2018-12-04T22:14:19.362Z,4.10
2018-12-04T22:16:46.855Z,4.14
2018-12-04T22:19:14.199Z,3.99
2018-12-04T22:21:41.497Z,3.90
2018-12-04T22:24:08.796Z,3.90
2018-12-04T22:26:36.074Z,4.04
2018-12-04T22:29:03.867Z,4.01
2018-12-04T22:31:31.270Z,4.03
2018-12-04T22:33:58.562Z,4.09
2018-12-04T22:36:25.826Z,3.92
2018-12-04T22:38:53.123Z,4.00
2018-12-04T22:41:20.398Z,3.95
2018-12-04T22:43:47.711Z,3.96
2018-12-04T22:46:15.160Z,3.99
2018-12-04T22:48:42.566Z,4.07
2018-12-04T22:51:09.883Z,3.97
2018-12-04T22:53:37.330Z,3.93
2018-12-04T22:56:04.663Z,3.91
2018-12-04T22:58:31.971Z,3.96
2018-12-04T23:00:59.402Z,3.91
2018-12-04T23:03:28.727Z,3.97
2018-12-04T23:05:56.002Z,3.96
2018-12-04T23:08:23.619Z,3.91
2018-12-04T23:10:50.919Z,3.97
2018-12-04T23:13:19.083Z,3.99
2018-12-04T23:15:46.527Z,3.80
2018-12-04T23:18:13.847Z,4.00
2018-12-04T23:20:41.189Z,3.94
2018-12-04T23:23:10.060Z,3.98
2018-12-04T23:25:37.383Z,4.07
2018-12-04T23:28:04.690Z,4.05
2018-12-04T23:30:32.002Z,3.96
2018-12-04T23:33:00.390Z,3.89
2018-12-04T23:35:27.731Z,3.78
2018-12-04T23:37:55.015Z,3.77
2018-12-04T23:40:39.256Z,3.85
2018-12-04T23:43:06.566Z,3.89
2018-12-04T23:45:34.443Z,4.07
2018-12-04T23:48:01.757Z,3.89
2018-12-04T23:50:30.155Z,3.89
2018-12-04T23:52:57.507Z,3.88
2018-12-04T23:55:24.812Z,4.17
2018-12-04T23:57:52.878Z,4.14
